Time;durP1;ratioP1;P1;durP2;ratioP2;P2;SDS_P1;SDS_P2;PMS_P1;PMS_P2;Temp;Humidity;BMP_temperature;BMP_pressure;BME280_temperature;BME280_humidity;BME280_pressure;Samples;Min_cycle;Max_cycle;Signal;HPM_P1;HPM_P2
2021/06/19 00:01:26;;;;;;;8.88;3.88;;;;;;;26.30;49.29;99965.13;5016421;28;20058;-77
2021/06/19 00:03:55;;;;;;;7.20;4.07;;;;;;;26.31;49.32;99973.25;5016157;28;20042;-77
2021/06/19 00:06:23;;;;;;;6.88;3.78;;;;;;;26.27;49.25;99969.66;5015717;28;20050;-77
2021/06/19 00:08:50;;;;;;;8.60;3.85;;;;;;;26.28;49.41;99973.31;5016275;28;20050;-78
2021/06/19 00:11:18;;;;;;;7.95;4.22;;;;;;;26.24;49.45;99975.44;5016307;28;20053;-77
2021/06/19 00:13:45;;;;;;;8.40;3.70;;;;;;;26.23;49.46;99977.50;5017839;28;20050;-77
2021/06/19 00:16:13;;;;;;;8.80;4.15;;;;;;;26.24;49.68;99984.00;5016654;28;20065;-77
2021/06/19 00:18:40;;;;;;;6.95;3.63;;;;;;;26.18;49.93;100003.66;5017695;28;20069;-76
2021/06/19 00:21:09;;;;;;;8.40;3.85;;;;;;;26.15;49.92;100010.25;5017367;28;20057;-77
2021/06/19 00:23:36;;;;;;;8.88;4.57;;;;;;;26.17;50.18;100006.97;5017071;28;20053;-77
2021/06/19 00:26:03;;;;;;;9.07;4.00;;;;;;;26.16;50.34;100005.34;5018711;28;20050;-78
2021/06/19 00:28:31;;;;;;;7.20;3.75;;;;;;;26.15;49.89;99998.84;5020997;28;20483;-77
2021/06/19 00:30:58;;;;;;;7.93;3.85;;;;;;;26.08;50.48;100005.47;5020216;28;20064;-77
2021/06/19 00:33:26;;;;;;;7.05;4.18;;;;;;;26.11;50.28;99998.09;5019622;28;20065;-78
2021/06/19 00:35:53;;;;;;;6.88;3.63;;;;;;;26.08;50.48;99993.22;5020923;28;20379;-78
2021/06/19 00:38:22;;;;;;;11.10;4.45;;;;;;;26.03;50.43;99996.56;5020197;28;20046;-77
2021/06/19 00:40:49;;;;;;;10.73;4.25;;;;;;;26.00;50.72;99983.19;5020643;28;20054;-78
2021/06/19 00:43:17;;;;;;;6.82;3.75;;;;;;;25.96;50.96;99991.78;5021043;28;20072;-78
2021/06/19 00:45:44;;;;;;;9.88;3.83;;;;;;;25.92;50.90;99994.69;5020871;28;20053;-78
2021/06/19 00:48:13;;;;;;;7.43;3.80;;;;;;;25.88;50.95;99995.97;5020940;28;20058;-78
2021/06/19 00:50:42;;;;;;;6.03;3.38;;;;;;;25.86;51.04;99995.59;5020030;28;20050;-78
2021/06/19 00:53:10;;;;;;;6.53;3.63;;;;;;;25.82;51.47;99991.97;5020787;28;20059;-77
2021/06/19 00:55:39;;;;;;;5.32;3.40;;;;;;;25.78;51.12;99986.31;5020232;28;20057;-77
2021/06/19 00:58:06;;;;;;;;;;;;;;;25.74;51.33;99996.97;5021337;28;20062;-77
2021/06/19 01:00:33;;;;;;;6.20;3.22;;;;;;;25.69;51.65;99998.28;5020468;28;19921;-77
2021/06/19 01:03:01;;;;;;;6.45;2.97;;;;;;;25.62;51.13;99994.72;5020526;28;20054;-77
2021/06/19 01:05:31;;;;;;;6.07;3.05;;;;;;;25.59;51.23;100001.28;5020130;28;20046;-78
2021/06/19 01:08:01;;;;;;;7.47;3.15;;;;;;;25.54;51.62;99999.72;5020459;28;20062;-76
2021/06/19 01:10:29;;;;;;;5.60;2.58;;;;;;;25.52;51.54;100017.25;5019740;28;20403;-76
2021/06/19 01:13:00;;;;;;;8.80;2.72;;;;;;;25.48;51.38;100004.28;5019780;28;20463;-77
2021/06/19 01:15:28;;;;;;;5.10;2.53;;;;;;;25.42;51.12;100011.72;5020823;28;20053;-76
2021/06/19 01:17:56;;;;;;;4.95;2.20;;;;;;;25.30;51.00;100016.75;5020073;28;20054;-77
2021/06/19 01:20:24;;;;;;;4.20;2.20;;;;;;;25.33;50.92;100017.13;5020281;28;20510;-78
2021/06/19 01:22:56;;;;;;;3.65;2.17;;;;;;;25.34;50.60;100010.97;5019976;28;20046;-77
2021/06/19 01:25:28;;;;;;;4.30;2.22;;;;;;;25.27;50.89;100020.44;5019740;28;20054;-78
2021/06/19 01:27:56;;;;;;;5.57;2.08;;;;;;;25.19;50.86;100021.72;5021194;28;20484;-77
2021/06/19 01:30:25;;;;;;;3.30;1.95;;;;;;;25.13;51.44;100023.44;5020146;28;20054;-77
2021/06/19 01:32:53;;;;;;;6.63;2.50;;;;;;;25.10;51.36;100016.53;5019761;28;20053;-76
2021/06/19 01:35:22;;;;;;;4.85;2.05;;;;;;;25.06;51.58;100018.63;5020039;28;20057;-77
2021/06/19 01:37:53;;;;;;;4.22;2.10;;;;;;;25.00;52.09;100017.47;5018437;28;20058;-78
2021/06/19 01:40:22;;;;;;;4.57;2.20;;;;;;;24.92;52.39;100015.94;5024324;28;20054;-77
2021/06/19 01:42:52;;;;;;;;;;;;;;;24.85;51.91;100005.44;5019161;28;20065;-77
2021/06/19 01:45:21;;;;;;;6.57;2.50;;;;;;;24.76;52.98;100013.69;5018799;28;19929;-78
2021/06/19 01:47:48;;;;;;;3.17;2.35;;;;;;;24.72;53.56;100018.59;5018575;28;20514;-78
2021/06/19 01:50:18;;;;;;;4.57;2.40;;;;;;;24.64;53.58;100014.22;5019222;28;20046;-78
2021/06/19 01:52:46;;;;;;;5.40;2.80;;;;;;;24.59;53.84;100015.47;5019946;28;20057;-77
2021/06/19 01:55:14;;;;;;;7.80;2.80;;;;;;;24.57;53.84;100028.50;5019623;28;20057;-77
2021/06/19 01:57:41;;;;;;;4.57;2.50;;;;;;;24.45;53.93;100016.38;5019866;28;20057;-78
2021/06/19 02:00:13;;;;;;;5.13;2.35;;;;;;;24.41;54.37;100012.75;5020161;28;20403;-77
2021/06/19 02:02:44;;;;;;;5.50;2.53;;;;;;;24.35;54.16;100022.97;5019250;28;20475;-78
2021/06/19 02:05:14;;;;;;;4.28;2.20;;;;;;;24.26;54.69;100025.50;5019467;28;20050;-78
2021/06/19 02:07:49;;;;;;;5.05;2.40;;;;;;;24.28;54.81;100021.00;5018964;28;20057;-77
2021/06/19 02:10:17;;;;;;;7.78;2.67;;;;;;;24.21;54.94;100023.94;5019277;28;20058;-77
2021/06/19 02:12:46;;;;;;;4.03;2.90;;;;;;;24.15;55.30;100021.91;5018200;28;20050;-77
2021/06/19 02:15:15;;;;;;;4.40;2.22;;;;;;;24.15;55.42;100024.78;5018039;28;20061;-78
2021/06/19 02:17:42;;;;;;;3.67;2.03;;;;;;;24.12;55.32;100023.56;5018268;28;20057;-77
2021/06/19 02:20:11;;;;;;;5.45;2.88;;;;;;;24.07;55.71;100029.72;5018800;28;20057;-78
2021/06/19 02:22:39;;;;;;;3.80;2.33;;;;;;;24.04;55.60;100033.38;5018742;28;20499;-78
2021/06/19 02:25:09;;;;;;;4.97;2.40;;;;;;;23.98;55.98;100026.53;5018105;28;20058;-77
2021/06/19 02:27:39;;;;;;;4.47;2.30;;;;;;;23.97;56.39;100039.13;5019672;28;20053;-76
2021/06/19 02:30:07;;;;;;;3.80;2.60;;;;;;;23.94;56.04;100034.28;5018635;28;20056;-78
2021/06/19 02:32:36;;;;;;;5.47;2.80;;;;;;;23.85;56.61;100038.38;5018208;28;20060;-78
2021/06/19 02:35:04;;;;;;;8.20;2.88;;;;;;;23.80;56.78;100038.03;5019156;28;20056;-77
2021/06/19 02:37:32;;;;;;;6.70;3.10;;;;;;;23.79;56.84;100037.22;5019373;28;20065;-77
2021/06/19 02:39:59;;;;;;;5.63;3.30;;;;;;;23.75;57.09;100042.09;5018357;28;20058;-78
2021/06/19 02:42:26;;;;;;;4.47;2.88;;;;;;;23.67;57.50;100046.22;5018332;28;20353;-78
2021/06/19 02:44:54;;;;;;;5.03;3.05;;;;;;;23.67;57.64;100051.91;5028670;28;20054;-78
2021/06/19 02:47:21;;;;;;;5.03;2.88;;;;;;;23.58;57.89;100037.31;5029547;28;20050;-77
2021/06/19 02:49:50;;;;;;;6.68;3.55;;;;;;;23.57;57.85;100041.38;5029234;28;20064;-78
2021/06/19 02:52:17;;;;;;;5.28;3.50;;;;;;;23.54;57.98;100039.34;5030247;28;20057;-78
2021/06/19 02:54:45;;;;;;;3.35;2.95;;;;;;;23.51;58.21;100044.63;5027672;28;20054;-77
2021/06/19 02:57:12;;;;;;;9.93;3.38;;;;;;;23.51;58.09;100043.84;5017632;28;20054;-77
2021/06/19 02:59:39;;;;;;;4.00;2.47;;;;;;;23.44;58.44;100047.53;5017986;28;20475;-78
2021/06/19 03:02:07;;;;;;;6.15;3.00;;;;;;;23.38;58.20;100052.03;5017213;28;20474;-78
2021/06/19 03:04:34;;;;;;;5.70;3.10;;;;;;;23.39;58.55;100053.66;5017891;28;20054;-77
2021/06/19 03:07:03;;;;;;;4.03;3.10;;;;;;;23.44;58.10;100056.06;4997543;28;20050;-78
2021/06/19 03:09:31;;;;;;;3.85;2.95;;;;;;;23.39;58.05;100059.34;4999214;28;20064;-77
2021/06/19 03:11:58;;;;;;;5.22;2.70;;;;;;;23.29;58.15;100055.31;4998146;28;20054;-78
2021/06/19 03:14:25;;;;;;;4.30;2.60;;;;;;;23.31;58.27;100054.91;4998552;28;20073;-78
2021/06/19 03:16:54;;;;;;;4.47;2.85;;;;;;;23.32;57.67;100053.66;5000559;28;20045;-78
2021/06/19 03:19:22;;;;;;;3.50;2.70;;;;;;;23.31;57.84;100052.06;5018053;28;20054;-78
2021/06/19 03:21:49;;;;;;;4.22;2.30;;;;;;;23.36;57.22;100043.09;5017203;28;20053;-78
2021/06/19 03:24:18;;;;;;;3.67;2.45;;;;;;;23.31;57.42;100046.38;5017902;28;20058;-77
2021/06/19 03:26:45;;;;;;;6.72;2.40;;;;;;;23.33;57.20;100045.94;5018000;28;20057;-78
2021/06/19 03:29:12;;;;;;;3.97;2.20;;;;;;;23.34;57.13;100051.22;5017400;28;20053;-78
2021/06/19 03:31:40;;;;;;;4.15;2.40;;;;;;;23.35;56.98;100052.03;5016803;28;20056;-78
2021/06/19 03:34:07;;;;;;;7.03;2.28;;;;;;;23.39;56.68;100042.28;5017008;28;20050;-77
2021/06/19 03:36:34;;;;;;;3.60;2.50;;;;;;;23.37;56.69;100036.22;5017788;28;20506;-77
2021/06/19 03:39:02;;;;;;;4.97;2.50;;;;;;;23.39;57.05;100058.50;5016840;28;20065;-78
2021/06/19 03:41:31;;;;;;;4.35;2.30;;;;;;;23.43;56.66;100059.31;5017263;28;20073;-78
2021/06/19 03:43:58;;;;;;;3.05;2.20;;;;;;;23.41;57.08;100054.03;5017143;28;20058;-77
2021/06/19 03:46:25;;;;;;;3.30;2.22;;;;;;;23.36;57.40;100063.00;5017425;28;20080;-77
2021/06/19 03:48:53;;;;;;;7.35;2.08;;;;;;;23.33;57.54;100055.31;5016849;28;20060;-78
2021/06/19 03:51:20;;;;;;;3.78;2.22;;;;;;;23.34;57.33;100056.91;5016050;28;20054;-78
2021/06/19 03:53:47;;;;;;;3.28;2.50;;;;;;;23.38;57.38;100059.75;5017143;28;20054;-77
2021/06/19 03:56:14;;;;;;;3.53;2.33;;;;;;;23.34;57.54;100067.47;5017399;28;20054;-78
2021/06/19 03:58:43;;;;;;;4.68;2.63;;;;;;;23.34;57.70;100073.97;5016844;28;20056;-78
2021/06/19 04:01:11;;;;;;;7.82;2.78;;;;;;;23.37;57.28;100081.69;5017685;28;20053;-77
2021/06/19 04:03:38;;;;;;;3.83;2.28;;;;;;;23.30;57.42;100084.53;5021226;28;20053;-78
2021/06/19 04:06:06;;;;;;;5.05;2.80;;;;;;;23.13;57.81;100091.09;5020610;28;20121;-76
2021/06/19 04:08:33;;;;;;;5.93;2.30;;;;;;;23.22;57.53;100099.97;5020339;28;20487;-77
2021/06/19 04:11:00;;;;;;;3.63;1.90;;;;;;;23.08;58.21;100101.66;5021448;28;20065;-77
2021/06/19 04:13:28;;;;;;;3.67;2.38;;;;;;;23.08;57.95;100090.28;5021152;28;20058;-77
2021/06/19 04:15:56;;;;;;;4.82;1.90;;;;;;;23.11;57.71;100102.84;5021275;28;20061;-77
2021/06/19 04:18:24;;;;;;;5.78;2.58;;;;;;;23.15;57.52;100106.50;5020235;28;20050;-77
2021/06/19 04:20:51;;;;;;;4.50;2.35;;;;;;;23.12;57.54;100110.16;5021148;28;20054;-77
2021/06/19 04:23:18;;;;;;;6.32;2.38;;;;;;;23.21;57.63;100106.91;5019726;28;20065;-77
2021/06/19 04:25:46;;;;;;;6.53;2.33;;;;;;;23.25;57.38;100111.34;5021327;28;20050;-77
2021/06/19 04:28:13;;;;;;;4.72;2.45;;;;;;;23.21;57.63;100115.41;5021041;28;20054;-77
2021/06/19 04:30:40;;;;;;;4.38;2.50;;;;;;;23.24;57.49;100123.91;5020032;28;20049;-76
2021/06/19 04:33:09;;;;;;;4.07;2.10;;;;;;;23.31;57.55;100117.44;5020153;28;20407;-77
2021/06/19 04:35:36;;;;;;;3.85;2.40;;;;;;;23.34;57.52;100116.59;5020975;28;20060;-77
2021/06/19 04:38:04;;;;;;;3.65;2.35;;;;;;;23.42;56.91;100117.41;5021131;28;20463;-77
2021/06/19 04:40:40;;;;;;;4.38;2.08;;;;;;;23.42;57.11;100117.41;5020485;28;20050;-78
2021/06/19 04:43:08;;;;;;;3.15;2.30;;;;;;;23.44;56.90;100114.94;5021152;28;20058;-77
2021/06/19 04:45:36;;;;;;;2.55;1.80;;;;;;;23.41;56.80;100119.41;5021012;28;20486;-77
2021/06/19 04:48:06;;;;;;;3.92;2.10;;;;;;;23.49;56.71;100118.16;5020650;28;20053;-78
2021/06/19 04:50:37;;;;;;;4.47;2.17;;;;;;;23.56;56.62;100119.34;5019793;28;20068;-78
2021/06/19 04:53:06;;;;;;;4.30;2.00;;;;;;;23.54;56.57;100122.63;5020712;28;20061;-78
2021/06/19 04:55:33;;;;;;;2.78;1.90;;;;;;;23.55;56.78;100121.41;5021323;28;20399;-78
2021/06/19 04:58:03;;;;;;;3.22;1.67;;;;;;;23.68;55.93;100111.16;5020475;28;20058;-77
2021/06/19 05:00:31;;;;;;;2.90;1.88;;;;;;;23.66;56.22;100102.25;5020941;28;20061;-77
2021/06/19 05:02:58;;;;;;;3.78;2.42;;;;;;;23.70;55.85;100114.41;5021264;28;20053;-77
2021/06/19 05:05:28;;;;;;;4.78;2.10;;;;;;;23.77;55.54;100119.31;5020966;28;20054;-77
2021/06/19 05:07:57;;;;;;;4.68;2.00;;;;;;;23.68;56.13;100110.38;5020503;28;20056;-78
2021/06/19 05:10:25;;;;;;;3.13;1.80;;;;;;;23.82;55.84;100123.75;5020783;28;20061;-78
2021/06/19 05:12:52;;;;;;;5.93;2.05;;;;;;;23.82;56.04;100127.41;5020491;28;20491;-76
2021/06/19 05:15:24;;;;;;;3.58;1.83;;;;;;;23.84;55.58;100130.66;5020947;28;20062;-76
2021/06/19 05:17:51;;;;;;;2.70;1.63;;;;;;;23.93;55.42;100129.38;5020162;28;20050;-76
2021/06/19 05:20:19;;;;;;;3.08;2.08;;;;;;;23.98;55.30;100138.31;5019423;28;20446;-78
2021/06/19 05:22:46;;;;;;;4.65;1.80;;;;;;;24.03;54.75;100137.88;5019834;28;20061;-78
2021/06/19 05:25:16;;;;;;;3.75;2.05;;;;;;;24.09;55.13;100135.41;5020006;28;20050;-78
2021/06/19 05:27:43;;;;;;;;;;;;;;;24.11;54.95;100136.59;5021014;28;20061;-77
2021/06/19 05:30:11;;;;;;;3.63;1.83;;;;;;;24.07;54.90;100137.84;5019685;28;19932;-77
2021/06/19 05:32:38;;;;;;;4.05;1.90;;;;;;;24.13;54.17;100133.34;5019707;28;20056;-78
2021/06/19 05:35:07;;;;;;;5.10;2.15;;;;;;;24.17;53.40;100142.66;5020335;28;20054;-78
2021/06/19 05:37:37;;;;;;;3.88;1.58;;;;;;;24.20;53.09;100144.66;5019858;28;20061;-78
2021/06/19 05:40:06;;;;;;;4.13;1.55;;;;;;;24.10;53.08;100152.03;5019659;28;20049;-78
2021/06/19 05:42:35;;;;;;;3.45;1.63;;;;;;;24.18;52.85;100158.50;5019047;28;20057;-78
2021/06/19 05:45:03;;;;;;;2.95;1.65;;;;;;;24.12;52.90;100151.63;5019248;28;20494;-77
2021/06/19 05:47:31;;;;;;;2.30;1.50;;;;;;;24.18;52.96;100158.50;5018959;28;20062;-79
2021/06/19 05:49:58;;;;;;;3.58;1.70;;;;;;;24.21;53.07;100168.25;5019489;28;20357;-76
2021/06/19 05:52:28;;;;;;;3.00;1.88;;;;;;;24.26;53.03;100157.25;5019222;28;20061;-76
2021/06/19 05:54:55;;;;;;;3.63;1.40;;;;;;;24.36;52.78;100161.25;5019050;28;20490;-78
2021/06/19 05:57:23;;;;;;;2.97;1.50;;;;;;;24.45;52.50;100157.94;5019610;28;20137;-77
2021/06/19 05:59:51;;;;;;;2.38;1.40;;;;;;;24.45;52.64;100163.63;5019190;28;20054;-77
2021/06/19 06:02:19;;;;;;;3.53;1.70;;;;;;;24.52;52.38;100157.91;5018471;28;20053;-76
2021/06/19 06:04:46;;;;;;;2.63;1.60;;;;;;;24.55;51.96;100157.09;5018167;28;20054;-76
2021/06/19 06:07:14;;;;;;;2.80;1.73;;;;;;;24.59;52.07;100151.34;5019436;28;20057;-78
2021/06/19 06:09:41;;;;;;;3.25;1.45;;;;;;;24.62;52.35;100151.31;5017876;28;20058;-77
2021/06/19 06:12:10;;;;;;;2.20;1.55;;;;;;;24.70;51.89;100158.59;5019055;28;20487;-77
2021/06/19 06:14:37;;;;;;;1.80;1.30;;;;;;;24.81;51.35;100146.28;5018438;28;20491;-77
2021/06/19 06:17:06;;;;;;;2.00;1.42;;;;;;;24.89;51.27;100151.50;5019060;28;20050;-76
2021/06/19 06:19:34;;;;;;;2.92;1.80;;;;;;;24.96;51.57;100150.63;5018043;28;20058;-77
2021/06/19 06:22:04;;;;;;;3.92;1.50;;;;;;;25.04;51.17;100155.03;5017846;28;20058;-77
2021/06/19 06:24:31;;;;;;;3.10;1.58;;;;;;;24.99;50.49;100155.50;5016848;28;20058;-77
2021/06/19 06:26:58;;;;;;;3.30;1.63;;;;;;;24.99;50.76;100168.91;5018063;28;20057;-77
2021/06/19 06:29:26;;;;;;;2.60;1.67;;;;;;;24.84;51.00;100162.53;5017817;28;20061;-77
2021/06/19 06:31:53;;;;;;;3.50;1.70;;;;;;;24.91;50.98;100171.03;5016705;28;20057;-76
2021/06/19 06:34:24;;;;;;;2.80;1.63;;;;;;;24.94;51.63;100175.09;5017481;28;20068;-77
2021/06/19 06:36:52;;;;;;;2.90;1.50;;;;;;;24.92;50.71;100169.78;5016997;28;20060;-76
2021/06/19 06:39:20;;;;;;;3.40;1.60;;;;;;;24.91;50.93;100179.59;5016462;28;20053;-76
2021/06/19 06:41:48;;;;;;;2.60;1.48;;;;;;;25.04;50.25;100174.97;5016895;28;20056;-77
2021/06/19 06:44:15;;;;;;;2.58;1.45;;;;;;;25.16;50.41;100178.53;5016022;28;20061;-76
2021/06/19 06:46:43;;;;;;;3.65;1.60;;;;;;;25.16;50.54;100172.81;5016531;28;20057;-77
2021/06/19 06:49:10;;;;;;;4.63;1.48;;;;;;;25.22;50.48;100168.31;5016518;28;20054;-77
2021/06/19 06:51:39;;;;;;;2.50;1.50;;;;;;;25.46;49.84;100178.66;5015862;28;20058;-76
2021/06/19 06:54:06;;;;;;;2.47;1.58;;;;;;;25.47;48.91;100183.16;5015983;28;20054;-77
2021/06/19 06:56:34;;;;;;;3.20;1.23;;;;;;;25.52;48.61;100179.03;5015399;28;20062;-78
2021/06/19 06:59:01;;;;;;;2.55;1.40;;;;;;;25.62;48.81;100188.66;5017640;28;20424;-77
2021/06/19 07:01:29;;;;;;;2.13;1.35;;;;;;;25.69;48.99;100192.25;5016196;28;20050;-77
2021/06/19 07:03:58;;;;;;;2.63;1.75;;;;;;;25.77;48.03;100187.28;5017764;28;20054;-77
2021/06/19 07:06:25;;;;;;;;;;;;;;;25.75;48.39;100186.91;5017610;28;20050;-76
2021/06/19 07:08:54;;;;;;;3.75;1.60;;;;;;;25.90;47.94;100194.06;5009560;28;19936;-78
2021/06/19 07:11:22;;;;;;;3.15;1.50;;;;;;;26.01;47.83;100205.34;5045131;28;20045;-78
2021/06/19 07:13:49;;;;;;;4.75;2.05;;;;;;;26.12;48.09;100200.34;5038989;28;20056;-81
2021/06/19 07:16:16;;;;;;;4.70;1.92;;;;;;;26.15;47.53;100200.72;5038604;28;20052;-77
2021/06/19 07:18:45;;;;;;;2.50;1.60;;;;;;;26.19;48.81;100192.91;5027548;28;20405;-76
2021/06/19 07:21:15;;;;;;;1.98;1.15;;;;;;;26.13;48.29;100189.72;5021632;28;20054;-76
2021/06/19 07:23:45;;;;;;;2.03;1.08;;;;;;;26.16;46.12;100185.19;5026849;28;20048;-76
2021/06/19 07:26:14;;;;;;;2.33;1.25;;;;;;;26.06;45.86;100193.47;5031271;28;20414;-77
2021/06/19 07:28:43;;;;;;;;;;;;;;;26.04;45.34;100193.09;5043425;28;20053;-75
2021/06/19 07:31:11;;;;;;;4.38;1.15;;;;;;;26.20;45.46;100192.47;5042219;28;19920;-76
2021/06/19 07:33:40;;;;;;;2.55;1.20;;;;;;;26.15;45.44;100186.44;5054033;28;20486;-77
2021/06/19 07:36:09;;;;;;;2.85;1.60;;;;;;;25.61;46.68;100189.91;5053429;28;20077;-74
2021/06/19 07:38:36;;;;;;;2.50;1.20;;;;;;;25.76;46.11;100187.72;5051315;28;20053;-76
2021/06/19 07:41:04;;;;;;;2.83;1.20;;;;;;;25.82;46.34;100186.00;5030248;28;20061;-75
2021/06/19 07:43:33;;;;;;;3.58;1.52;;;;;;;26.09;46.00;100183.25;5031420;28;20046;-75
2021/06/19 07:46:01;;;;;;;2.63;1.20;;;;;;;26.25;46.15;100188.34;5032320;28;20049;-75
2021/06/19 07:48:29;;;;;;;2.40;1.30;;;;;;;25.80;45.52;100185.63;5031872;28;20054;-74
2021/06/19 07:50:56;;;;;;;3.95;1.30;;;;;;;26.05;45.80;100182.47;5031988;28;20070;-77
2021/06/19 07:53:24;;;;;;;2.08;1.33;;;;;;;26.33;46.09;100192.69;5029041;28;20475;-76
2021/06/19 07:55:51;;;;;;;4.32;1.27;;;;;;;26.58;46.02;100185.84;5032125;28;20498;-75
2021/06/19 07:58:19;;;;;;;4.55;1.90;;;;;;;27.14;44.99;100186.13;5032718;28;20390;-76
2021/06/19 08:00:48;;;;;;;6.35;1.85;;;;;;;27.57;41.79;100184.53;5031761;28;20053;-77
2021/06/19 08:03:15;;;;;;;2.63;1.60;;;;;;;28.09;41.35;100187.56;5029850;28;20053;-76
2021/06/19 08:05:42;;;;;;;4.28;1.60;;;;;;;29.31;39.04;100181.81;5031765;28;20053;-77
2021/06/19 08:08:10;;;;;;;2.63;1.25;;;;;;;30.35;37.53;100178.88;5031631;28;20079;-77
2021/06/19 08:10:37;;;;;;;1.83;1.20;;;;;;;30.75;34.26;100183.34;5032945;28;20082;-77
2021/06/19 08:13:04;;;;;;;1.60;1.10;;;;;;;31.33;33.01;100187.97;5032351;28;20053;-78
2021/06/19 08:15:34;;;;;;;2.85;1.20;;;;;;;31.78;31.59;100180.22;5033541;28;20384;-77
2021/06/19 08:18:02;;;;;;;1.90;1.10;;;;;;;32.59;31.11;100172.59;5031960;28;20368;-77
2021/06/19 08:20:31;;;;;;;2.88;1.10;;;;;;;33.33;29.56;100178.56;5032899;28;20487;-77
2021/06/19 08:22:59;;;;;;;2.13;1.10;;;;;;;33.49;29.10;100174.53;5029710;28;20418;-76
2021/06/19 08:25:27;;;;;;;2.95;1.10;;;;;;;34.30;28.22;100171.28;5031746;28;20057;-77
2021/06/19 08:27:54;;;;;;;3.75;1.20;;;;;;;35.16;26.59;100176.50;5031482;28;20042;-76
2021/06/19 08:30:21;;;;;;;1.50;1.00;;;;;;;36.06;25.35;100170.94;5041831;28;20053;-77
2021/06/19 08:32:49;;;;;;;3.45;1.20;;;;;;;36.70;24.47;100175.19;5054011;28;20053;-77
2021/06/19 08:35:17;;;;;;;2.03;1.08;;;;;;;37.78;22.98;100163.72;5034349;28;20058;-78
2021/06/19 08:37:45;;;;;;;3.28;1.10;;;;;;;38.64;22.49;100154.44;5036906;28;20045;-77
2021/06/19 08:40:13;;;;;;;3.03;0.90;;;;;;;39.53;21.21;100165.81;5036641;28;20050;-78
2021/06/19 08:42:41;;;;;;;2.08;1.10;;;;;;;40.30;20.13;100159.09;5035058;28;20049;-77
2021/06/19 08:45:09;;;;;;;1.98;1.20;;;;;;;40.86;19.34;100158.25;5033201;28;20053;-77
2021/06/19 08:47:37;;;;;;;;;;;;;;;41.30;18.97;100156.53;5036309;28;20064;-80
2021/06/19 08:50:07;;;;;;;1.73;1.10;;;;;;;42.10;17.56;100154.75;5040359;28;20385;-80
2021/06/19 08:52:37;;;;;;;2.50;1.00;;;;;;;42.76;17.14;100146.72;5041642;28;20053;-80
2021/06/19 08:55:08;;;;;;;1.95;1.08;;;;;;;43.10;17.24;100140.50;5034990;28;20053;-79
2021/06/19 08:57:36;;;;;;;2.65;1.10;;;;;;;43.67;17.21;100133.94;5036018;28;20053;-77
2021/06/19 09:00:06;;;;;;;1.90;1.00;;;;;;;43.98;16.41;100135.31;5034412;28;20057;-77
2021/06/19 09:02:33;;;;;;;2.08;1.15;;;;;;;44.33;15.12;100133.41;5038970;28;20061;-77
2021/06/19 09:05:05;;;;;;;2.80;1.00;;;;;;;44.28;15.49;100137.22;5035212;28;20419;-77
2021/06/19 09:07:38;;;;;;;1.95;1.20;;;;;;;44.41;14.87;100136.47;5033754;28;20463;-76
2021/06/19 09:10:36;;;;;;;1.45;1.00;;;;;;;44.78;15.04;100135.53;5037740;28;20057;-77
2021/06/19 09:13:07;;;;;;;2.22;1.00;;;;;;;45.35;15.34;100138.16;4966842;28;20186;-77
2021/06/19 09:15:37;;;;;;;2.03;1.27;;;;;;;45.64;14.27;100138.34;5019097;28;20046;-78
2021/06/19 09:18:11;;;;;;;2.15;1.10;;;;;;;46.09;13.75;100132.16;5032565;28;20054;-79
2021/06/19 09:20:41;;;;;;;3.13;1.23;;;;;;;46.58;14.01;100133.59;5034741;28;20049;-78
2021/06/19 09:23:12;;;;;;;2.40;1.13;;;;;;;47.07;13.12;100132.75;5038794;28;20415;-78
2021/06/19 09:25:43;;;;;;;2.45;1.10;;;;;;;47.53;12.11;100133.00;5035582;28;20489;-80
2021/06/19 09:38:36;;;;;;;3.05;1.80;;;;;;;48.51;12.18;100126.28;5109972;22;20414;-80
2021/06/19 09:41:04;;;;;;;4.10;1.45;;;;;;;48.55;12.08;100126.66;5048168;28;20049;-80
2021/06/19 09:43:35;;;;;;;2.25;1.30;;;;;;;49.14;11.37;100123.44;5039159;28;20478;-80
2021/06/19 09:46:04;;;;;;;1.75;1.00;;;;;;;49.70;10.45;100123.41;5037463;28;20054;-77
2021/06/19 09:48:33;;;;;;;1.83;1.20;;;;;;;50.12;10.14;100130.88;5036206;28;20064;-78
2021/06/19 09:52:31;;;;;;;2.38;1.35;;;;;;;50.57;9.48;100120.00;5154967;27;20621;-77
2021/06/19 09:55:00;;;;;;;1.50;1.30;;;;;;;50.56;9.52;100127.34;5112637;28;20060;-78
2021/06/19 09:57:38;;;;;;;3.45;1.33;;;;;;;50.89;9.59;100115.38;5109108;28;20063;-77
2021/06/19 10:00:07;;;;;;;3.15;1.60;;;;;;;51.52;9.71;100102.16;5112214;28;20416;-81
2021/06/19 10:02:35;;;;;;;3.05;1.40;;;;;;;51.76;8.99;100091.50;5114353;28;20048;-82
2021/06/19 10:05:03;;;;;;;1.73;1.30;;;;;;;51.97;8.88;100085.06;5114523;28;20059;-80
2021/06/19 10:07:33;;;;;;;2.33;1.20;;;;;;;52.34;8.44;100076.91;5112536;28;20055;-78
2021/06/19 10:10:03;;;;;;;2.20;1.30;;;;;;;52.46;9.12;100070.34;5111540;28;20480;-79
2021/06/19 10:12:32;;;;;;;2.70;1.70;;;;;;;52.74;8.38;100072.59;5113356;28;20051;-81
2021/06/19 10:15:01;;;;;;;3.70;1.60;;;;;;;52.97;8.71;100065.44;5113598;28;20051;-78
2021/06/19 10:17:31;;;;;;;2.95;1.50;;;;;;;53.27;8.29;100066.97;5121811;28;20050;-77
2021/06/19 10:20:01;;;;;;;2.97;1.70;;;;;;;53.42;8.06;100071.03;5110957;28;20048;-77
2021/06/19 10:22:29;;;;;;;1.85;1.60;;;;;;;53.71;8.30;100073.94;5112032;28;20044;-77
2021/06/19 10:25:02;;;;;;;2.28;1.40;;;;;;;53.73;7.37;100074.09;5111456;28;20067;-77
2021/06/19 10:27:31;;;;;;;2.85;1.50;;;;;;;54.30;7.30;100080.44;5112618;28;20047;-78
2021/06/19 10:30:00;;;;;;;2.80;1.77;;;;;;;53.99;7.84;100074.47;5112005;28;20043;-77
2021/06/19 10:32:45;;;;;;;2.13;1.85;;;;;;;54.44;7.41;100078.47;5110055;28;20048;-77
2021/06/19 10:35:16;;;;;;;1.60;1.50;;;;;;;54.61;7.47;100079.66;5108577;28;20672;-77
2021/06/19 10:37:45;;;;;;;2.78;1.50;;;;;;;54.67;7.11;100077.88;5110033;28;20052;-77
2021/06/19 10:40:21;;;;;;;2.00;1.80;;;;;;;54.84;6.59;100061.13;5110823;28;20048;-78
2021/06/19 10:42:52;;;;;;;2.55;1.55;;;;;;;54.24;6.42;100068.09;5110569;28;20060;-77
2021/06/19 10:45:23;;;;;;;10.13;2.00;;;;;;;54.91;5.78;100072.81;5113036;28;20373;-77
2021/06/19 10:48:05;;;;;;;2.40;2.20;;;;;;;54.83;6.83;100069.25;5113835;28;20487;-77
2021/06/19 10:50:34;;;;;;;2.53;1.58;;;;;;;55.06;6.26;100068.59;5113311;28;20060;-77
2021/06/19 10:53:07;;;;;;;2.95;1.70;;;;;;;55.19;6.45;100064.25;5113099;28;20047;-78
2021/06/19 10:55:52;;;;;;;1.70;1.60;;;;;;;55.22;5.79;100059.97;5113722;28;20047;-78
2021/06/19 10:58:22;;;;;;;2.53;1.75;;;;;;;54.86;6.19;100052.31;5113705;28;20052;-77
2021/06/19 11:00:53;;;;;;;2.42;1.40;;;;;;;54.79;5.95;100053.28;5113000;28;20075;-78
2021/06/19 11:03:40;;;;;;;3.10;1.50;;;;;;;54.43;6.88;100052.25;5101781;28;20056;-77
2021/06/19 11:06:22;;;;;;;2.15;1.60;;;;;;;54.71;6.42;100048.31;5099908;28;20059;-77
2021/06/19 11:09:02;;;;;;;2.17;1.60;;;;;;;54.28;6.50;100048.28;5098410;28;20066;-77
2021/06/19 11:11:58;;;;;;;2.60;1.80;;;;;;;54.87;6.41;100042.69;5101300;28;20399;-77
2021/06/19 11:15:09;;;;;;;3.63;1.40;;;;;;;54.79;6.61;100041.34;5083244;28;20048;-77
2021/06/19 11:17:44;;;;;;;1.90;1.58;;;;;;;54.59;6.78;100032.56;5082552;28;20052;-77
2021/06/19 11:20:26;;;;;;;3.20;1.60;;;;;;;54.84;6.82;100028.28;5095657;28;20056;-77
2021/06/19 11:22:58;;;;;;;2.00;1.80;;;;;;;55.03;6.04;100025.09;5097001;28;20044;-77
2021/06/19 11:25:42;;;;;;;1.42;1.33;;;;;;;54.84;6.22;100016.34;5096754;28;20059;-77
2021/06/19 11:28:12;;;;;;;2.55;1.50;;;;;;;54.92;5.83;100008.72;5098126;28;20059;-77
2021/06/19 11:30:53;;;;;;;1.70;1.60;;;;;;;54.54;6.06;100001.66;5098245;28;20062;-77
2021/06/19 11:33:49;;;;;;;1.77;1.40;;;;;;;54.87;6.34;99988.19;5096685;28;20052;-77
2021/06/19 11:36:31;;;;;;;2.85;1.67;;;;;;;55.08;6.18;99978.38;5100633;28;20056;-77
2021/06/19 11:39:13;;;;;;;2.38;1.50;;;;;;;54.94;6.08;99987.16;5096985;28;20403;-77
2021/06/19 11:41:49;;;;;;;2.15;1.50;;;;;;;54.91;6.30;99982.50;5095461;28;20043;-78
2021/06/19 11:44:20;;;;;;;2.55;1.50;;;;;;;54.65;6.34;99976.28;5095435;28;20063;-77
2021/06/19 11:46:50;;;;;;;2.58;1.33;;;;;;;54.46;7.03;99985.41;5096801;28;20407;-77
2021/06/19 11:49:17;;;;;;;3.15;1.27;;;;;;;54.36;6.06;99979.50;5095391;28;20055;-77
2021/06/19 11:51:49;;;;;;;2.42;1.30;;;;;;;54.12;6.56;99987.50;5095530;28;20487;-77